Time;durP1;ratioP1;P1;durP2;ratioP2;P2;SDS_P1;SDS_P2;PMS_P1;PMS_P2;Temp;Humidity;BMP_temperature;BMP_pressure;BME280_temperature;BME280_humidity;BME280_pressure;Samples;Min_cycle;Max_cycle;Signal;HPM_P1;HPM_P2
2022/01/04 00:00:39;;;;;;;28.17;4.93;;;9.30;99.90;;;;;;5075929;28;20052;-83
2022/01/04 00:03:06;;;;;;;36.38;5.60;;;8.50;99.90;;;;;;5059119;28;20097;-83
2022/01/04 00:05:32;;;;;;;31.05;3.97;;;8.70;99.90;;;;;;5059140;28;20118;-83
2022/01/04 00:07:59;;;;;;;38.88;4.40;;;9.50;99.90;;;;;;5075624;28;20040;-83
2022/01/04 00:10:27;;;;;;;46.55;5.05;;;9.70;99.90;;;;;;5075533;28;20042;-83
2022/01/04 00:15:41;;;;;;;31.10;3.97;;;9.60;99.90;;;;;;5075520;28;20132;-83
2022/01/04 00:18:07;;;;;;;29.27;4.22;;;9.30;99.90;;;;;;5058696;28;20126;-83
2022/01/04 00:20:32;;;;;;;33.67;3.95;;;9.50;99.90;;;;;;5058616;28;20560;-83
2022/01/04 00:22:58;;;;;;;35.78;4.82;;;9.20;99.90;;;;;;5058108;28;20032;-83
2022/01/04 00:25:24;;;;;;;42.17;4.13;;;10.00;99.90;;;;;;5074653;28;20079;-83
2022/01/04 00:27:50;;;;;;;38.45;4.95;;;;;;;;;;5058427;28;20503;-83
2022/01/04 00:30:17;;;;;;;31.80;5.50;;;9.00;99.90;;;;;;5058773;28;20446;-83
2022/01/04 00:32:42;;;;;;;35.38;4.78;;;8.90;99.90;;;;;;5059165;28;20093;-83
2022/01/04 00:35:09;;;;;;;33.03;4.57;;;9.20;99.90;;;;;;5057741;28;20044;-83
2022/01/04 00:37:34;;;;;;;29.75;4.78;;;9.70;99.90;;;;;;5074312;28;20038;-83
2022/01/04 00:40:00;;;;;;;43.55;3.92;;;11.30;99.90;;;;;;5058633;28;20036;-83
2022/01/04 00:42:26;;;;;;;37.72;4.05;;;9.70;99.90;;;;;;5058811;28;20044;-83
2022/01/04 00:44:52;;;;;;;29.85;3.45;;;10.00;99.90;;;;;;5058548;28;20420;-83
2022/01/04 00:47:25;;;;;;;27.23;4.15;;;9.90;99.90;;;;;;5058473;28;20043;-83
2022/01/04 00:49:51;;;;;;;23.38;3.72;;;9.70;99.90;;;;;;5058549;28;20111;-83
2022/01/04 00:52:17;;;;;;;26.52;4.22;;;10.00;99.90;;;;;;5058887;28;20084;-83
2022/01/04 00:54:45;;;;;;;24.75;3.80;;;9.40;99.90;;;;;;5058558;28;20044;-83
2022/01/04 00:57:11;;;;;;;20.27;3.20;;;11.30;99.90;;;;;;5058226;28;20132;-83
2022/01/04 00:59:37;;;;;;;35.03;4.70;;;9.60;99.90;;;;;;5057871;28;20076;-83
2022/01/04 01:02:03;;;;;;;24.92;3.30;;;9.00;99.90;;;;;;5058626;28;20055;-83
2022/01/04 01:04:29;;;;;;;31.83;4.10;;;9.00;99.90;;;;;;5075248;28;20437;-83
2022/01/04 01:06:55;;;;;;;36.90;4.28;;;9.30;99.90;;;;;;5058399;28;20036;-83
2022/01/04 01:09:24;;;;;;;26.55;4.03;;;9.00;99.90;;;;;;5074866;28;20078;-83
2022/01/04 01:11:50;;;;;;;37.65;4.88;;;8.90;99.90;;;;;;5058110;28;20040;-83
2022/01/04 01:14:16;;;;;;;22.63;3.70;;;9.30;99.90;;;;;;5058121;28;20070;-83
2022/01/04 01:16:42;;;;;;;33.08;4.53;;;8.20;99.90;;;;;;5058448;28;20099;-83
2022/01/04 01:19:08;;;;;;;26.45;3.72;;;8.90;99.90;;;;;;5074944;28;20130;-83
2022/01/04 01:21:34;;;;;;;29.48;4.18;;;7.40;99.90;;;;;;5058081;28;20044;-83
2022/01/04 01:24:00;;;;;;;22.73;4.55;;;8.80;99.90;;;;;;5058053;28;20044;-83
2022/01/04 01:26:25;;;;;;;34.60;5.80;;;8.90;99.90;;;;;;5074870;28;20521;-83
2022/01/04 01:28:51;;;;;;;28.52;3.88;;;9.00;99.90;;;;;;5058307;28;20064;-83
2022/01/04 01:31:17;;;;;;;38.40;4.43;;;8.60;99.90;;;;;;5058044;28;20124;-83
2022/01/04 01:33:43;;;;;;;32.53;4.40;;;9.00;99.90;;;;;;5058010;28;20141;-83
2022/01/04 01:36:09;;;;;;;28.20;3.72;;;8.40;99.90;;;;;;5060800;28;20044;-84
2022/01/04 01:38:35;;;;;;;29.63;4.63;;;8.60;99.90;;;;;;5077920;28;20079;-84
2022/01/04 01:41:01;;;;;;;35.50;4.18;;;8.60;99.90;;;;;;5061672;28;20132;-84
2022/01/04 01:43:29;;;;;;;35.38;4.15;;;8.80;99.90;;;;;;5061114;28;20530;-83
2022/01/04 01:45:55;;;;;;;24.52;3.47;;;10.00;99.90;;;;;;5060677;28;20094;-83
2022/01/04 01:48:22;;;;;;;18.02;3.55;;;8.50;99.90;;;;;;5061371;28;20043;-83
2022/01/04 01:50:48;;;;;;;30.20;3.80;;;8.80;99.90;;;;;;5061423;28;20105;-83
2022/01/04 01:53:14;;;;;;;25.63;4.28;;;8.70;99.90;;;;;;5061254;28;20040;-83
2022/01/04 01:55:40;;;;;;;35.83;4.13;;;8.60;99.90;;;;;;5077862;28;20037;-83
2022/01/04 01:58:06;;;;;;;22.08;3.53;;;7.00;99.90;;;;;;5095012;28;20047;-83
2022/01/04 02:00:32;;;;;;;42.63;4.18;;;8.40;99.90;;;;;;5077614;28;20044;-83
2022/01/04 02:02:59;;;;;;;24.77;3.72;;;8.80;99.90;;;;;;5077892;28;20195;-83
2022/01/04 02:05:26;;;;;;;24.67;4.15;;;8.90;99.90;;;;;;5061642;28;20035;-83
2022/01/04 02:07:52;;;;;;;34.90;4.95;;;9.20;99.90;;;;;;5061001;28;20127;-83
2022/01/04 02:10:18;;;;;;;27.02;3.58;;;10.80;99.90;;;;;;5060967;28;20484;-83
2022/01/04 02:12:47;;;;;;;32.97;4.18;;;9.50;99.90;;;;;;5060997;28;20044;-83
2022/01/04 02:15:16;;;;;;;33.53;4.20;;;8.80;99.90;;;;;;5060742;28;20040;-83
2022/01/04 02:17:42;;;;;;;29.38;4.10;;;9.40;99.90;;;;;;5060849;28;20047;-83
2022/01/04 02:20:10;;;;;;;41.25;5.28;;;10.80;99.90;;;;;;5061374;28;20040;-83
2022/01/04 02:22:36;;;;;;;45.13;5.00;;;9.20;99.90;;;;;;5061313;28;20048;-83
2022/01/04 02:25:03;;;;;;;39.05;4.50;;;10.00;99.90;;;;;;5060785;28;20047;-84
2022/01/04 02:27:28;;;;;;;30.67;4.05;;;9.30;99.90;;;;;;5060497;28;20040;-83
2022/01/04 02:30:00;;;;;;;25.92;4.22;;;9.90;99.90;;;;;;5077439;28;20052;-83
2022/01/04 02:32:26;;;;;;;38.10;4.03;;;10.10;99.90;;;;;;5060658;28;20052;-82
2022/01/04 02:34:52;;;;;;;41.45;5.38;;;10.80;99.90;;;;;;5077243;28;20044;-83
2022/01/04 02:37:21;;;;;;;42.58;5.43;;;9.70;99.90;;;;;;5060760;28;20507;-83
2022/01/04 02:39:48;;;;;;;34.72;5.15;;;11.90;99.90;;;;;;5060444;28;20048;-83
2022/01/04 02:42:14;;;;;;;44.35;4.57;;;9.40;99.90;;;;;;5060273;28;20046;-83
2022/01/04 02:44:40;;;;;;;32.70;3.50;;;9.30;99.90;;;;;;5093964;28;20051;-83
2022/01/04 02:47:06;;;;;;;34.33;4.45;;;7.90;99.90;;;;;;5077989;28;20044;-83
2022/01/04 02:49:32;;;;;;;28.92;3.83;;;9.40;99.90;;;;;;5094255;28;20048;-82
2022/01/04 02:51:58;;;;;;;38.92;4.38;;;9.20;99.90;;;;;;5058506;28;20044;-84
2022/01/04 02:54:24;;;;;;;29.95;4.25;;;9.30;99.90;;;;;;5076009;28;20040;-83
2022/01/04 02:56:50;;;;;;;43.22;4.03;;;9.30;99.90;;;;;;5059927;28;20087;-83
2022/01/04 03:03:23;;;;;;;38.45;4.75;;;9.00;99.90;;;;;;5090735;28;20534;-83
2022/01/04 03:05:49;;;;;;;37.83;4.53;;;9.20;99.90;;;;;;5060020;28;20052;-83
2022/01/04 03:08:14;;;;;;;36.78;4.90;;;9.70;99.90;;;;;;5060211;28;20048;-83
2022/01/04 03:10:40;;;;;;;37.85;4.03;;;9.20;99.90;;;;;;5060348;28;20085;-83
2022/01/04 03:13:07;;;;;;;37.05;5.25;;;9.40;99.90;;;;;;5059822;28;20040;-83
2022/01/04 03:15:33;;;;;;;32.83;3.95;;;9.20;99.90;;;;;;5059618;28;20036;-83
2022/01/04 03:17:59;;;;;;;39.00;4.13;;;9.10;99.90;;;;;;5059693;28;20048;-83
2022/01/04 03:20:25;;;;;;;26.42;3.80;;;7.80;99.90;;;;;;5072025;28;20047;-83
2022/01/04 03:22:51;;;;;;;40.13;5.30;;;9.00;99.90;;;;;;5039903;28;20048;-83
2022/01/04 03:25:17;;;;;;;32.65;3.95;;;9.10;99.90;;;;;;5045931;28;20040;-83
2022/01/04 03:27:43;;;;;;;39.35;4.70;;;8.90;99.90;;;;;;5043635;28;20412;-83
2022/01/04 03:30:09;;;;;;;37.40;4.70;;;9.20;99.90;;;;;;5039893;28;20047;-83
2022/01/04 03:32:35;;;;;;;40.17;6.20;;;9.10;99.90;;;;;;5049377;28;20048;-83
2022/01/04 03:35:01;;;;;;;38.10;5.30;;;9.40;99.90;;;;;;5059302;28;20408;-83
2022/01/04 03:37:27;;;;;;;53.60;5.35;;;8.80;99.90;;;;;;5059636;28;20400;-83
2022/01/04 03:39:53;;;;;;;29.00;3.50;;;9.00;99.90;;;;;;5076210;28;20046;-83
2022/01/04 03:42:19;;;;;;;39.35;4.25;;;11.00;99.90;;;;;;5059189;28;20046;-83
2022/01/04 03:44:45;;;;;;;35.50;4.43;;;8.60;99.90;;;;;;5059518;28;20125;-83
2022/01/04 03:47:10;;;;;;;37.17;4.78;;;9.30;99.90;;;;;;5059438;28;20048;-83
2022/01/04 03:49:36;;;;;;;29.35;4.60;;;9.20;99.90;;;;;;5059290;28;20130;-83
2022/01/04 03:52:02;;;;;;;39.83;4.55;;;9.10;99.90;;;;;;5060040;28;20072;-83
2022/01/04 03:54:28;;;;;;;31.88;3.90;;;8.90;99.90;;;;;;5059066;28;20377;-83
2022/01/04 03:56:54;;;;;;;43.97;4.40;;;9.00;99.90;;;;;;5059330;28;20044;-83
2022/01/04 03:59:20;;;;;;;37.70;4.97;;;10.70;99.90;;;;;;5056499;28;20045;-84
2022/01/04 04:01:47;;;;;;;36.85;4.90;;;9.10;99.90;;;;;;5074240;28;20079;-83
2022/01/04 04:04:13;;;;;;;49.72;5.47;;;9.20;99.90;;;;;;5059148;28;20408;-83
2022/01/04 04:06:40;;;;;;;44.90;4.78;;;9.20;99.90;;;;;;5076015;28;20056;-83
2022/01/04 04:09:06;;;;;;;50.13;5.70;;;9.50;99.90;;;;;;5059011;28;20042;-83
2022/01/04 04:11:32;;;;;;;59.20;5.47;;;9.40;99.90;;;;;;5058702;28;20561;-83
2022/01/04 04:13:58;;;;;;;31.50;3.80;;;9.70;99.90;;;;;;5058693;28;20044;-83
2022/01/04 04:16:24;;;;;;;36.33;5.10;;;9.70;99.90;;;;;;5058866;28;20040;-83
2022/01/04 04:18:49;;;;;;;44.80;5.47;;;9.40;99.90;;;;;;5058773;28;20131;-83
2022/01/04 04:21:15;;;;;;;37.13;4.60;;;9.70;99.90;;;;;;5075607;28;20043;-83
2022/01/04 04:23:41;;;;;;;40.83;4.80;;;10.00;99.90;;;;;;5076277;28;20052;-83
2022/01/04 04:26:07;;;;;;;25.20;4.20;;;9.70;99.90;;;;;;5075939;28;20051;-83
2022/01/04 04:28:33;;;;;;;36.67;4.82;;;9.80;99.90;;;;;;5058979;28;20522;-83
2022/01/04 04:30:59;;;;;;;38.45;5.43;;;9.50;99.90;;;;;;5075370;28;20496;-83
2022/01/04 04:33:25;;;;;;;28.90;4.28;;;9.60;99.90;;;;;;5075599;28;20040;-83
2022/01/04 04:35:50;;;;;;;37.03;4.30;;;10.00;99.90;;;;;;5075518;28;20149;-83
2022/01/04 04:38:16;;;;;;;37.00;4.53;;;9.90;99.90;;;;;;5075259;28;20097;-83
2022/01/04 04:40:42;;;;;;;42.80;4.75;;;9.80;99.90;;;;;;5074804;28;20044;-83
2022/01/04 04:43:08;;;;;;;38.95;4.72;;;9.60;99.90;;;;;;5058590;28;20044;-83
2022/01/04 04:45:33;;;;;;;27.42;3.67;;;9.50;99.90;;;;;;5058316;28;20048;-83
2022/01/04 04:47:59;;;;;;;39.20;3.97;;;9.50;99.90;;;;;;5058412;28;20051;-83
2022/01/04 04:50:25;;;;;;;41.35;4.70;;;8.80;99.90;;;;;;5058625;28;20044;-83
2022/01/04 04:52:51;;;;;;;35.47;5.15;;;9.50;99.90;;;;;;5058385;28;20385;-83
2022/01/04 04:55:19;;;;;;;49.53;6.28;;;11.40;99.90;;;;;;5058797;28;20040;-83
2022/01/04 04:57:45;;;;;;;36.47;4.65;;;9.40;99.90;;;;;;5058827;28;20440;-83
2022/01/04 05:01:02;;;;;;;47.00;5.53;;;9.40;99.90;;;;;;5075072;28;20158;-83
2022/01/04 05:03:28;;;;;;;37.20;4.28;;;9.10;99.90;;;;;;5055591;28;20489;-83
2022/01/04 05:05:54;;;;;;;39.70;4.65;;;9.40;99.90;;;;;;5074511;28;20083;-83
2022/01/04 05:08:19;;;;;;;45.15;5.93;;;9.40;99.90;;;;;;5056608;28;20036;-84
2022/01/04 05:10:46;;;;;;;43.45;4.93;;;9.40;99.90;;;;;;5060525;28;20040;-83
2022/01/04 05:13:11;;;;;;;39.90;5.38;;;9.40;99.90;;;;;;5079076;28;20396;-82
2022/01/04 05:15:37;;;;;;;36.95;4.72;;;9.20;99.90;;;;;;5061938;28;20036;-83
2022/01/04 05:18:03;;;;;;;38.67;4.20;;;9.40;99.90;;;;;;5062219;28;20051;-83
2022/01/04 05:20:29;;;;;;;44.80;4.88;;;9.40;99.90;;;;;;5062030;28;20090;-83
2022/01/04 05:22:55;;;;;;;38.58;4.90;;;9.20;99.90;;;;;;5061212;28;20071;-83
2022/01/04 05:25:21;;;;;;;35.47;4.93;;;10.60;99.90;;;;;;5061797;28;20047;-83
2022/01/04 05:27:46;;;;;;;53.53;5.00;;;9.70;99.90;;;;;;5075060;28;20036;-83
2022/01/04 05:30:12;;;;;;;29.42;4.25;;;9.20;99.90;;;;;;5078619;28;20043;-83
2022/01/04 05:32:38;;;;;;;40.85;4.90;;;9.30;99.90;;;;;;5078373;28;20071;-83
2022/01/04 05:35:04;;;;;;;45.10;4.43;;;9.30;99.90;;;;;;5062137;28;20036;-83
2022/01/04 05:37:30;;;;;;;38.67;4.93;;;9.20;99.90;;;;;;5061493;28;20055;-83
2022/01/04 05:39:56;;;;;;;26.90;3.78;;;10.50;99.90;;;;;;5061890;28;20040;-83
2022/01/04 05:42:22;;;;;;;30.65;3.97;;;9.20;99.90;;;;;;5061433;28;20036;-83
2022/01/04 05:44:47;;;;;;;32.20;5.00;;;9.50;99.90;;;;;;5061561;28;20047;-83
2022/01/04 05:47:13;;;;;;;38.53;5.20;;;9.70;99.90;;;;;;5061440;28;20047;-83
2022/01/04 05:49:39;;;;;;;40.13;4.88;;;9.80;99.90;;;;;;5062368;28;20070;-83
2022/01/04 05:52:05;;;;;;;30.92;4.40;;;9.90;99.90;;;;;;5078045;28;20040;-83
2022/01/04 05:54:32;;;;;;;41.33;4.65;;;9.60;99.90;;;;;;5061835;28;20036;-83
2022/01/04 05:56:57;;;;;;;41.42;4.63;;;9.50;99.90;;;;;;5078188;28;20050;-83
2022/01/04 05:59:23;;;;;;;31.02;4.38;;;9.70;99.90;;;;;;5061390;28;20126;-83
2022/01/04 06:01:49;;;;;;;41.50;5.25;;;9.80;99.90;;;;;;5060659;28;20541;-83
2022/01/04 06:04:15;;;;;;;34.65;5.28;;;10.00;99.90;;;;;;5060722;28;20060;-83
2022/01/04 06:06:41;;;;;;;36.67;4.70;;;9.70;99.90;;;;;;5095822;28;20043;-83
2022/01/04 06:09:16;;;;;;;33.70;3.92;;;10.30;99.90;;;;;;5096274;28;20433;-83
2022/01/04 06:11:55;;;;;;;48.78;5.30;;;10.40;99.90;;;;;;5061031;28;20071;-83
2022/01/04 06:17:07;;;;;;;34.65;4.55;;;10.30;99.90;;;;;;5094655;28;20539;-84
2022/01/04 06:19:33;;;;;;;35.97;4.50;;;9.90;99.90;;;;;;5060779;28;20114;-83
2022/01/04 06:21:59;;;;;;;28.92;4.40;;;10.10;99.90;;;;;;5060355;28;20048;-83
2022/01/04 06:24:24;;;;;;;35.60;4.85;;;10.30;99.90;;;;;;5061270;28;20052;-83
2022/01/04 06:26:52;;;;;;;32.47;4.50;;;10.30;99.90;;;;;;5077549;28;20035;-83
2022/01/04 06:29:20;;;;;;;42.38;5.07;;;10.20;99.90;;;;;;5060959;28;20123;-83
2022/01/04 06:31:45;;;;;;;38.35;4.32;;;10.00;99.90;;;;;;5060973;28;20081;-83
2022/01/04 06:34:12;;;;;;;35.15;4.45;;;11.10;99.90;;;;;;5060550;28;20052;-83
2022/01/04 06:36:38;;;;;;;41.35;5.00;;;9.80;99.90;;;;;;5061012;28;20395;-83
2022/01/04 06:39:04;;;;;;;42.78;5.60;;;9.40;99.90;;;;;;5089419;28;20048;-84
2022/01/04 06:41:30;;;;;;;29.40;4.07;;;10.10;99.90;;;;;;5065363;28;20181;-83
2022/01/04 06:43:55;;;;;;;34.63;4.82;;;9.80;99.90;;;;;;5060334;28;20123;-83
2022/01/04 06:46:23;;;;;;;31.83;4.93;;;9.70;99.90;;;;;;5077085;28;20044;-84
2022/01/04 06:48:49;;;;;;;31.77;4.75;;;9.80;99.90;;;;;;5060736;28;20126;-83
2022/01/04 06:51:14;;;;;;;42.03;5.25;;;10.00;99.90;;;;;;5060297;28;20054;-83
2022/01/04 06:53:40;;;;;;;45.70;5.07;;;9.80;99.90;;;;;;5076994;28;20044;-83
2022/01/04 06:56:06;;;;;;;40.00;5.28;;;9.80;99.90;;;;;;5076703;28;20036;-83
2022/01/04 06:58:32;;;;;;;35.22;5.40;;;10.00;99.90;;;;;;5060544;28;20047;-83
2022/01/04 07:00:58;;;;;;;38.00;5.30;;;10.00;99.90;;;;;;5076565;28;20502;-83
2022/01/04 07:03:24;;;;;;;35.22;4.72;;;10.00;99.90;;;;;;5060181;28;20090;-83
2022/01/04 07:05:50;;;;;;;39.08;5.20;;;10.10;99.90;;;;;;5060140;28;20087;-83
2022/01/04 07:08:16;;;;;;;41.45;5.45;;;10.00;99.90;;;;;;5055801;28;20052;-83
2022/01/04 07:10:42;;;;;;;41.28;6.07;;;9.70;99.90;;;;;;5052116;28;20120;-84
2022/01/04 07:13:08;;;;;;;30.33;5.35;;;9.80;99.90;;;;;;5056353;28;20132;-83
2022/01/04 07:15:35;;;;;;;34.75;4.20;;;9.90;99.90;;;;;;5074933;28;20048;-84
2022/01/04 07:18:01;;;;;;;32.08;4.55;;;10.90;99.90;;;;;;5059196;28;20055;-84
2022/01/04 07:20:27;;;;;;;42.10;4.57;;;9.90;99.90;;;;;;5075846;28;20081;-85
2022/01/04 07:22:53;;;;;;;36.83;4.60;;;9.80;99.90;;;;;;5059244;28;20047;-85
2022/01/04 07:25:19;;;;;;;34.30;4.50;;;9.70;99.90;;;;;;5058614;28;20056;-85
2022/01/04 07:27:45;;;;;;;35.03;4.47;;;9.40;99.90;;;;;;5058962;28;20047;-84
2022/01/04 07:30:11;;;;;;;37.35;4.90;;;9.80;99.90;;;;;;5059257;28;20040;-87
2022/01/04 07:32:37;;;;;;;28.13;4.68;;;9.80;99.90;;;;;;5075806;28;20040;-85
2022/01/04 07:35:03;;;;;;;34.70;4.65;;;9.70;99.90;;;;;;5092523;28;20511;-85
2022/01/04 07:37:29;;;;;;;20.23;3.72;;;9.80;99.90;;;;;;5092939;28;20138;-84
2022/01/04 07:39:55;;;;;;;11.38;2.38;;;10.10;99.90;;;;;;5058670;28;20502;-85
2022/01/04 07:42:21;;;;;;;16.63;2.38;;;9.80;99.90;;;;;;5058881;28;20097;-84
2022/01/04 07:44:47;;;;;;;8.50;1.35;;;9.80;99.90;;;;;;5058866;28;20087;-85
2022/01/04 07:47:13;;;;;;;6.88;1.75;;;10.40;99.90;;;;;;5047135;28;20036;-87
2022/01/04 07:49:39;;;;;;;9.65;1.63;;;9.50;99.90;;;;;;5065405;28;20496;-84
2022/01/04 07:52:07;;;;;;;13.43;2.28;;;8.60;99.90;;;;;;5058438;28;20051;-83
2022/01/04 07:54:36;;;;;;;9.27;1.55;;;9.50;99.90;;;;;;5056565;28;20061;-85
2022/01/04 07:57:04;;;;;;;12.75;1.67;;;9.70;99.90;;;;;;5058730;28;20468;-85
2022/01/04 07:59:31;;;;;;;10.88;1.77;;;9.60;99.90;;;;;;5058242;28;20051;-85
2022/01/04 08:01:57;;;;;;;10.70;1.63;;;9.40;99.90;;;;;;5058050;28;20035;-84
2022/01/04 08:04:23;;;;;;;14.82;1.80;;;11.50;99.90;;;;;;5074596;28;20139;-90
2022/01/04 08:06:49;;;;;;;18.25;1.70;;;9.50;99.90;;;;;;5058587;28;20482;-86
2022/01/04 08:09:15;;;;;;;15.48;1.85;;;9.40;99.90;;;;;;5074851;28;20079;-86
2022/01/04 08:11:41;;;;;;;11.32;1.35;;;9.40;99.90;;;;;;5058445;28;20051;-84
2022/01/04 08:14:07;;;;;;;12.00;1.80;;;9.40;99.90;;;;;;5075010;28;20123;-84
2022/01/04 08:16:33;;;;;;;8.98;1.38;;;9.40;99.90;;;;;;5074623;28;20551;-85
2022/01/04 08:19:01;;;;;;;6.28;1.23;;;9.20;99.90;;;;;;5057824;28;20077;-85
2022/01/04 08:21:27;;;;;;;13.95;1.65;;;9.20;99.90;;;;;;5074642;28;20547;-84
2022/01/04 08:23:53;;;;;;;8.30;1.20;;;9.00;99.90;;;;;;5074800;28;20131;-85
2022/01/04 08:26:19;;;;;;;12.65;1.73;;;9.10;99.90;;;;;;5057468;28;20051;-86
2022/01/04 08:28:45;;;;;;;14.13;1.73;;;9.30;99.90;;;;;;5057677;28;20040;-84
2022/01/04 08:31:11;;;;;;;13.48;1.83;;;9.00;99.90;;;;;;5058295;28;20087;-85
2022/01/04 08:33:40;;;;;;;12.90;1.70;;;9.30;99.90;;;;;;5074204;28;20071;-86
2022/01/04 08:36:07;;;;;;;8.63;1.52;;;9.10;99.90;;;;;;5057801;28;20049;-86
2022/01/04 08:38:33;;;;;;;8.35;1.27;;;9.00;99.90;;;;;;5074843;28;20499;-87
2022/01/04 08:40:59;;;;;;;12.10;1.65;;;9.00;99.90;;;;;;5075058;28;20052;-89
2022/01/04 08:43:26;;;;;;;9.00;1.15;;;9.00;99.90;;;;;;5058150;28;20051;-86
2022/01/04 08:45:55;;;;;;;9.93;1.38;;;9.10;99.90;;;;;;5061024;28;20047;-84
2022/01/04 08:48:21;;;;;;;10.52;2.10;;;9.30;99.90;;;;;;5061981;28;20044;-84
2022/01/04 08:50:48;;;;;;;8.05;1.20;;;9.00;99.90;;;;;;5062191;28;20044;-84
2022/01/04 08:53:15;;;;;;;14.68;1.50;;;8.90;99.90;;;;;;5067501;28;20075;-84
2022/01/04 08:55:41;;;;;;;10.13;1.63;;;8.70;99.90;;;;;;5077834;28;20500;-87
2022/01/04 08:58:07;;;;;;;12.82;1.45;;;8.60;99.90;;;;;;5062077;28;20431;-84
2022/01/04 09:00:36;;;;;;;8.18;1.30;;;10.30;99.90;;;;;;5078324;28;20122;-86
2022/01/04 09:03:02;;;;;;;14.23;1.65;;;8.60;99.90;;;;;;5078700;28;20093;-86
2022/01/04 09:05:31;;;;;;;8.30;1.27;;;8.60;99.90;;;;;;5061231;28;20052;-85
2022/01/04 09:08:00;;;;;;;11.57;1.35;;;8.80;99.90;;;;;;5061776;28;20079;-86
2022/01/04 09:10:34;;;;;;;5.60;1.05;;;8.70;99.90;;;;;;5078458;28;20047;-85
2022/01/04 09:13:07;;;;;;;8.98;0.90;;;8.50;99.90;;;;;;5078367;28;20040;-84
2022/01/04 09:15:55;;;;;;;6.43;0.82;;;8.50;99.90;;;;;;5086987;28;20052;-85
2022/01/04 09:21:13;;;;;;;7.00;0.80;;;10.30;99.90;;;;;;5083359;28;20805;-84
2022/01/04 09:23:39;;;;;;;4.90;0.90;;;8.50;99.90;;;;;;5061530;28;20048;-84
2022/01/04 09:26:05;;;;;;;6.50;1.05;;;8.40;99.90;;;;;;5095255;28;20381;-84
2022/01/04 09:28:31;;;;;;;1.92;0.70;;;8.40;99.90;;;;;;5061648;28;20044;-84
2022/01/04 09:30:57;;;;;;;5.43;1.48;;;8.30;99.90;;;;;;5061304;28;20042;-85
2022/01/04 09:33:26;;;;;;;8.13;1.13;;;8.00;99.90;;;;;;5061508;28;20043;-86
2022/01/04 09:35:53;;;;;;;6.32;1.00;;;8.30;99.90;;;;;;5061009;28;20462;-84
2022/01/04 09:38:22;;;;;;;8.25;1.45;;;8.30;99.90;;;;;;5061044;28;20500;-84
2022/01/04 09:40:53;;;;;;;10.07;1.42;;;8.00;99.90;;;;;;5059842;28;20051;-84
2022/01/04 09:43:20;;;;;;;5.53;0.90;;;8.80;99.90;;;;;;5064447;28;20381;-83
2022/01/04 09:45:47;;;;;;;8.57;0.90;;;8.40;99.90;;;;;;5060849;28;21001;-83
2022/01/04 09:48:16;;;;;;;6.88;0.82;;;9.10;99.90;;;;;;5060945;28;20617;-83
2022/01/04 09:50:43;;;;;;;6.75;1.25;;;8.10;99.90;;;;;;5060965;28;20048;-83
2022/01/04 09:53:12;;;;;;;6.75;1.30;;;8.10;99.90;;;;;;5060812;28;20504;-81
2022/01/04 09:55:42;;;;;;;7.18;0.98;;;9.50;99.90;;;;;;5060051;28;20043;-89
2022/01/04 09:58:08;;;;;;;10.88;1.30;;;7.90;99.90;;;;;;5057619;28;20096;-85
2022/01/04 10:00:34;;;;;;;11.13;1.60;;;6.30;99.90;;;;;;5076813;28;20040;-85
2022/01/04 10:03:16;;;;;;;5.55;1.27;;;7.60;99.90;;;;;;5060582;28;20047;-82
2022/01/04 10:05:43;;;;;;;12.75;1.98;;;7.70;99.90;;;;;;5044656;28;20071;-85
2022/01/04 10:08:10;;;;;;;3.78;1.20;;;9.00;99.90;;;;;;5073487;28;20080;-83
2022/01/04 10:10:38;;;;;;;4.47;1.25;;;7.80;99.90;;;;;;5073345;28;20045;-83
2022/01/04 10:13:07;;;;;;;7.03;1.58;;;7.70;99.90;;;;;;5052956;28;20048;-82
2022/01/04 10:15:35;;;;;;;8.85;1.35;;;7.70;99.90;;;;;;5065290;28;20120;-81
2022/01/04 10:18:21;;;;;;;7.88;1.20;;;6.30;99.90;;;;;;5047889;28;20089;-90
2022/01/04 10:20:51;;;;;;;;;;;7.50;99.90;;;;;;5041545;28;20105;-84
2022/01/04 10:23:22;;;;;;;4.78;1.00;;;7.40;99.90;;;;;;5040243;28;20372;-83
2022/01/04 10:25:50;;;;;;;9.35;1.90;;;8.10;99.90;;;;;;5053828;28;20510;-85
2022/01/04 10:28:33;;;;;;;10.68;1.50;;;7.80;99.90;;;;;;5064869;28;20501;-85
2022/01/04 10:31:01;;;;;;;10.25;1.13;;;7.50;99.90;;;;;;5040536;28;20186;-84
2022/01/04 10:33:28;;;;;;;5.13;1.45;;;7.70;99.90;;;;;;5039904;28;20101;-84
2022/01/04 10:35:55;;;;;;;5.85;1.30;;;7.60;99.90;;;;;;5073377;28;20052;-85
2022/01/04 10:38:26;;;;;;;8.88;1.30;;;7.70;99.90;;;;;;5052294;28;20036;-85
2022/01/04 10:41:03;;;;;;;4.60;1.20;;;7.90;99.90;;;;;;5054863;28;20139;-84
2022/01/04 10:43:31;;;;;;;10.98;1.30;;;6.20;99.90;;;;;;5059676;28;20083;-84
2022/01/04 10:46:00;;;;;;;4.43;1.30;;;7.70;99.90;;;;;;5061832;28;20044;-82
2022/01/04 10:48:30;;;;;;;12.25;1.63;;;7.60;99.90;;;;;;5038394;28;20040;-85
2022/01/04 10:50:58;;;;;;;8.88;1.35;;;7.60;99.90;;;;;;5041844;28;20519;-84
2022/01/04 10:53:30;;;;;;;8.13;1.48;;;7.70;99.90;;;;;;5039766;28;20033;-83
2022/01/04 10:56:05;;;;;;;9.65;1.63;;;7.70;99.90;;;;;;5039378;28;20044;-85
2022/01/04 10:58:36;;;;;;;4.75;1.27;;;7.60;99.90;;;;;;5039758;28;20451;-82
2022/01/04 11:01:08;;;;;;;6.43;1.25;;;7.70;99.90;;;;;;5039745;28;20049;-83
2022/01/04 11:03:37;;;;;;;9.88;1.50;;;7.90;99.90;;;;;;5055675;28;20102;-81
2022/01/04 11:06:06;;;;;;;8.40;1.55;;;8.00;99.90;;;;;;5056894;28;21036;-84
2022/01/04 11:08:33;;;;;;;12.20;1.38;;;7.70;99.90;;;;;;5058787;28;20500;-84
2022/01/04 11:10:59;;;;;;;9.38;1.70;;;8.00;99.90;;;;;;5059292;28;20117;-83
2022/01/04 11:13:25;;;;;;;6.70;1.50;;;9.80;99.90;;;;;;5058926;28;20484;-83
2022/01/04 11:15:52;;;;;;;8.98;1.40;;;9.80;99.90;;;;;;5059028;28;20036;-83
2022/01/04 11:18:18;;;;;;;7.10;1.35;;;9.60;99.90;;;;;;5059397;28;20040;-83
2022/01/04 11:20:45;;;;;;;6.72;1.45;;;7.60;99.90;;;;;;5076047;28;20446;-83
2022/01/04 11:23:13;;;;;;;8.50;1.27;;;7.60;99.90;;;;;;5059233;28;20047;-83
2022/01/04 11:25:43;;;;;;;14.02;1.58;;;7.80;99.90;;;;;;5039273;28;20046;-83
2022/01/04 11:28:12;;;;;;;11.35;1.48;;;7.80;99.90;;;;;;5061857;28;20044;-83
2022/01/04 11:30:53;;;;;;;15.25;2.17;;;7.70;99.90;;;;;;5070950;28;20055;-82
2022/01/04 11:33:25;;;;;;;11.38;2.33;;;7.80;99.90;;;;;;5058916;28;20523;-83
2022/01/04 11:35:52;;;;;;;11.55;1.63;;;7.80;99.90;;;;;;5059118;28;20512;-83
2022/01/04 11:38:34;;;;;;;7.38;1.33;;;7.70;99.90;;;;;;5058801;28;20050;-83
2022/01/04 11:41:04;;;;;;;9.60;1.67;;;7.70;99.90;;;;;;5038794;28;20045;-83
2022/01/04 11:43:38;;;;;;;7.53;1.05;;;9.20;99.90;;;;;;5058502;28;20109;-82
2022/01/04 11:46:08;;;;;;;9.80;1.77;;;9.60;99.90;;;;;;5058401;28;20048;-84
2022/01/04 11:48:37;;;;;;;9.63;1.88;;;7.30;99.90;;;;;;5055437;28;20056;-83
2022/01/04 11:51:06;;;;;;;7.63;2.20;;;7.40;99.90;;;;;;5075150;28;20050;-87
2022/01/04 11:53:33;;;;;;;9.75;1.42;;;7.20;99.90;;;;;;5058508;28;20043;-85
2022/01/04 11:56:04;;;;;;;5.30;1.35;;;7.40;99.90;;;;;;5059457;28;20048;-84
2022/01/04 11:58:50;;;;;;;6.45;1.33;;;7.40;99.90;;;;;;5075008;28;20121;-84
2022/01/04 12:01:27;;;;;;;5.60;1.20;;;7.40;99.90;;;;;;5074600;28;20123;-83
2022/01/04 12:03:56;;;;;;;9.88;1.40;;;7.20;99.90;;;;;;5062450;28;20528;-85
2022/01/04 12:06:42;;;;;;;11.38;1.40;;;7.60;99.90;;;;;;5039860;28;20492;-82
2022/01/04 12:09:26;;;;;;;6.07;1.48;;;9.20;99.90;;;;;;5057899;28;20040;-83
2022/01/04 12:11:52;;;;;;;8.43;1.25;;;7.20;99.90;;;;;;5054950;28;20048;-84
2022/01/04 12:14:22;;;;;;;5.82;0.90;;;7.20;99.90;;;;;;5054157;28;20404;-84
2022/01/04 12:17:02;;;;;;;4.50;1.20;;;5.70;99.90;;;;;;5058360;28;20075;-83
2022/01/04 12:19:50;;;;;;;9.73;1.30;;;7.40;99.90;;;;;;5057750;28;20051;-83
2022/01/04 12:22:32;;;;;;;8.27;1.27;;;7.40;99.90;;;;;;5075082;28;20051;-87
2022/01/04 12:25:03;;;;;;;8.77;1.48;;;7.50;99.90;;;;;;5058346;28;20035;-83
2022/01/04 12:27:29;;;;;;;7.00;1.30;;;7.40;99.90;;;;;;5074491;28;20605;-85
2022/01/04 12:30:28;;;;;;;12.45;1.40;;;7.40;99.90;;;;;;5058083;28;20051;-85
2022/01/04 12:33:32;;;;;;;5.15;1.48;;;7.50;99.90;;;;;;5058107;28;20046;-84
2022/01/04 12:35:58;;;;;;;7.72;1.45;;;;;;;;;;5057649;28;20050;-83
2022/01/04 12:38:24;;;;;;;5.40;1.27;;;7.40;99.90;;;;;;5075018;28;20106;-84
2022/01/04 12:40:52;;;;;;;9.90;2.28;;;7.50;99.90;;;;;;5058288;28;20484;-84
2022/01/04 12:43:18;;;;;;;6.72;1.45;;;7.40;99.90;;;;;;5058229;28;20066;-85
2022/01/04 12:45:59;;;;;;;9.40;1.60;;;6.10;99.90;;;;;;5057700;28;20044;-84
2022/01/04 12:48:47;;;;;;;8.52;1.52;;;7.50;99.90;;;;;;5058005;28;20072;-86
2022/01/04 12:51:31;;;;;;;8.52;1.40;;;7.80;99.90;;;;;;5058016;28;20379;-85
2022/01/04 12:54:08;;;;;;;14.23;1.98;;;7.50;99.90;;;;;;5057610;28;20079;-85
2022/01/04 12:56:52;;;;;;;7.22;1.40;;;7.90;99.90;;;;;;5074275;28;20568;-84
2022/01/04 12:59:30;;;;;;;10.80;1.65;;;7.70;99.90;;;;;;5057927;28;20048;-84
2022/01/04 13:01:59;;;;;;;7.88;1.98;;;7.60;99.90;;;;;;5057938;28;20043;-84
2022/01/04 13:04:52;;;;;;;8.95;1.60;;;7.80;99.90;;;;;;5057824;28;20117;-85